Time;durP1;ratioP1;P1;durP2;ratioP2;P2;SDS_P1;SDS_P2;PMS_P1;PMS_P2;Temp;Humidity;BMP_temperature;BMP_pressure;BME280_temperature;BME280_humidity;BME280_pressure;Samples;Min_cycle;Max_cycle;Signal;HPM_P1;HPM_P2
2023/04/28 00:00:19;;;;;;;10.10;7.47;;;8.00;99.90;;;;;;5076096;28;20543;-67
2023/04/28 00:02:47;;;;;;;9.77;7.63;;;8.00;99.90;;;;;;5076185;28;20549;-67
2023/04/28 00:05:14;;;;;;;11.60;7.97;;;7.90;99.90;;;;;;5076535;28;20504;-68
2023/04/28 00:07:42;;;;;;;12.10;7.37;;;8.00;99.90;;;;;;5076831;28;20783;-67
2023/04/28 00:10:10;;;;;;;11.03;7.20;;;7.90;99.90;;;;;;5075996;28;20493;-68
2023/04/28 00:12:37;;;;;;;11.97;7.70;;;7.80;99.90;;;;;;5076158;28;20519;-68
2023/04/28 00:15:04;;;;;;;12.97;7.83;;;7.80;99.90;;;;;;5076138;28;20765;-67
2023/04/28 00:17:31;;;;;;;13.23;7.40;;;7.70;99.90;;;;;;5075694;28;20458;-67
2023/04/28 00:19:58;;;;;;;9.33;7.23;;;7.70;99.90;;;;;;5075619;28;20470;-68
2023/04/28 00:22:25;;;;;;;10.67;7.27;;;7.60;99.90;;;;;;5075677;28;20462;-67
2023/04/28 00:24:53;;;;;;;13.43;8.20;;;7.50;99.90;;;;;;5075891;28;20460;-66
2023/04/28 00:27:20;;;;;;;9.70;6.50;;;7.40;99.90;;;;;;5075771;28;20545;-67
2023/04/28 00:29:47;;;;;;;9.57;6.17;;;7.40;99.90;;;;;;5075685;28;20454;-67
2023/04/28 00:32:14;;;;;;;8.63;5.97;;;7.50;99.90;;;;;;5075674;28;20454;-67
2023/04/28 00:34:41;;;;;;;8.93;6.20;;;7.60;99.90;;;;;;5076021;28;20802;-68
2023/04/28 00:37:08;;;;;;;8.00;6.67;;;7.70;99.90;;;;;;5075966;28;20454;-68
2023/04/28 00:39:35;;;;;;;10.30;6.17;;;7.70;99.90;;;;;;5075651;28;20533;-68
2023/04/28 00:42:04;;;;;;;8.67;5.80;;;7.70;99.90;;;;;;5075910;28;20493;-68
2023/04/28 00:44:30;;;;;;;10.30;6.53;;;7.60;99.90;;;;;;5075628;28;20541;-67
2023/04/28 00:46:59;;;;;;;10.53;6.30;;;7.60;99.90;;;;;;5075735;28;20523;-68
2023/04/28 00:49:26;;;;;;;9.47;6.30;;;7.60;99.90;;;;;;5075386;28;20549;-68
2023/04/28 00:51:53;;;;;;;10.30;6.10;;;7.60;99.90;;;;;;5075816;28;20454;-68
2023/04/28 00:54:20;;;;;;;6.70;5.80;;;7.60;99.90;;;;;;5075596;28;20494;-67
2023/04/28 00:56:47;;;;;;;7.50;5.53;;;7.60;99.90;;;;;;5075464;28;20454;-67
2023/04/28 00:59:15;;;;;;;6.70;5.43;;;7.50;99.90;;;;;;5075281;28;20782;-67
2023/04/28 01:01:43;;;;;;;8.47;5.77;;;7.40;99.90;;;;;;5074490;28;20526;-66
2023/04/28 01:04:10;;;;;;;9.57;6.20;;;7.40;99.90;;;;;;5075152;28;20454;-66
2023/04/28 01:06:38;;;;;;;9.73;6.83;;;7.50;99.90;;;;;;5075128;28;20855;-67
2023/04/28 01:09:06;;;;;;;8.53;5.03;;;7.40;99.90;;;;;;5073633;28;20545;-67
2023/04/28 01:11:33;;;;;;;7.27;5.17;;;7.50;99.90;;;;;;5074420;28;20450;-67
2023/04/28 01:14:00;;;;;;;5.57;4.80;;;7.50;99.90;;;;;;5074747;28;20458;-68
2023/04/28 01:16:28;;;;;;;7.57;4.87;;;7.60;99.90;;;;;;5074941;28;20468;-68
2023/04/28 01:18:56;;;;;;;7.17;4.77;;;7.70;99.90;;;;;;5074771;28;20458;-66
2023/04/28 01:21:29;;;;;;;8.47;5.27;;;7.80;99.90;;;;;;5074691;28;20493;-68
2023/04/28 01:23:57;;;;;;;9.23;5.43;;;7.80;99.90;;;;;;5074978;28;20826;-69
2023/04/28 01:26:24;;;;;;;11.20;5.13;;;7.90;99.90;;;;;;5074961;28;20458;-68
2023/04/28 01:28:51;;;;;;;11.50;5.97;;;7.90;99.90;;;;;;5074733;28;20450;-68
2023/04/28 01:31:19;;;;;;;6.20;5.00;;;8.00;99.90;;;;;;5075842;28;20473;-68
2023/04/28 01:33:45;;;;;;;10.50;5.90;;;8.10;99.90;;;;;;5075559;28;20486;-68
2023/04/28 01:36:12;;;;;;;8.10;5.50;;;8.10;99.90;;;;;;5074661;28;20464;-67
2023/04/28 01:38:39;;;;;;;6.90;5.30;;;8.10;99.90;;;;;;5074282;28;20484;-68
2023/04/28 01:41:07;;;;;;;7.53;6.20;;;8.00;99.90;;;;;;5074994;28;20504;-67
2023/04/28 01:43:34;;;;;;;8.07;6.20;;;8.00;99.90;;;;;;5074820;28;20454;-67
2023/04/28 01:46:01;;;;;;;11.30;5.87;;;8.00;99.90;;;;;;5074502;28;20456;-68
2023/04/28 01:48:28;;;;;;;8.53;6.77;;;8.00;99.90;;;;;;5074654;28;20546;-68
2023/04/28 01:50:55;;;;;;;7.47;6.30;;;8.00;99.90;;;;;;5074829;28;20493;-67
2023/04/28 01:53:22;;;;;;;10.90;7.07;;;7.90;99.90;;;;;;5074441;28;20458;-67
2023/04/28 01:55:48;;;;;;;7.50;6.03;;;7.90;99.90;;;;;;5074558;28;20464;-67
2023/04/28 01:58:17;;;;;;;8.17;5.70;;;7.90;99.90;;;;;;5074575;28;20919;-66
2023/04/28 02:00:43;;;;;;;8.80;5.90;;;7.80;99.90;;;;;;5074492;28;20514;-67
2023/04/28 02:03:10;;;;;;;8.97;5.40;;;7.90;99.90;;;;;;5074556;28;20828;-68
2023/04/28 02:05:37;;;;;;;8.63;5.50;;;7.90;99.90;;;;;;5074395;28;21021;-68
2023/04/28 02:08:04;;;;;;;8.27;5.40;;;7.90;99.90;;;;;;5074343;28;20454;-68
2023/04/28 02:10:31;;;;;;;7.00;5.20;;;7.90;99.90;;;;;;5074574;28;20454;-67
2023/04/28 02:12:58;;;;;;;5.67;5.00;;;7.90;99.90;;;;;;5077479;28;20549;-67
2023/04/28 02:15:26;;;;;;;10.23;6.27;;;7.80;99.90;;;;;;5078848;28;20839;-67
2023/04/28 02:17:53;;;;;;;9.37;5.20;;;7.80;99.90;;;;;;5079077;28;20477;-67
2023/04/28 02:20:20;;;;;;;7.50;5.50;;;7.70;99.90;;;;;;5078411;28;20454;-68
2023/04/28 02:22:46;;;;;;;7.27;4.70;;;7.60;99.90;;;;;;5079029;28;20533;-67
2023/04/28 02:25:13;;;;;;;6.90;4.67;;;7.60;99.90;;;;;;5078749;28;20544;-68
2023/04/28 02:27:41;;;;;;;6.63;4.60;;;7.50;99.90;;;;;;5077942;28;20846;-68
2023/04/28 02:30:09;;;;;;;6.33;4.33;;;7.40;99.90;;;;;;5078912;28;20493;-68
2023/04/28 02:32:37;;;;;;;7.20;4.30;;;7.20;99.90;;;;;;5079004;28;20468;-67
2023/04/28 02:35:04;;;;;;;8.10;4.43;;;7.20;99.90;;;;;;5078447;28;20500;-67
2023/04/28 02:37:31;;;;;;;7.37;4.90;;;7.20;99.90;;;;;;5078467;28;20541;-67
2023/04/28 02:39:58;;;;;;;5.80;4.73;;;7.00;99.90;;;;;;5078564;28;20486;-67
2023/04/28 02:42:24;;;;;;;7.83;6.07;;;7.00;99.90;;;;;;5077970;28;20489;-67
2023/04/28 02:44:51;;;;;;;9.73;5.80;;;7.20;99.90;;;;;;5078387;28;20541;-67
2023/04/28 02:47:18;;;;;;;9.13;5.13;;;7.10;99.90;;;;;;5078173;28;21013;-67
2023/04/28 02:49:46;;;;;;;5.70;4.63;;;7.10;99.90;;;;;;5078584;28;20464;-68
2023/04/28 02:52:13;;;;;;;6.80;4.83;;;7.10;99.90;;;;;;5079040;28;20450;-68
2023/04/28 02:54:40;;;;;;;10.40;4.97;;;7.00;99.90;;;;;;5078665;28;20551;-67
2023/04/28 02:57:07;;;;;;;9.67;4.50;;;7.00;99.90;;;;;;5078808;28;20530;-67
2023/04/28 02:59:34;;;;;;;6.80;4.93;;;7.20;99.90;;;;;;5077823;28;20457;-67
2023/04/28 03:02:01;;;;;;;4.93;4.30;;;7.20;99.90;;;;;;5078255;28;20789;-68
2023/04/28 03:04:28;;;;;;;6.23;5.03;;;7.30;99.90;;;;;;5077814;28;20883;-68
2023/04/28 03:06:56;;;;;;;8.53;5.87;;;7.40;99.90;;;;;;5077571;28;20469;-67
2023/04/28 03:09:23;;;;;;;8.97;5.03;;;7.50;99.90;;;;;;5078048;28;20523;-67
2023/04/28 03:11:49;;;;;;;7.00;4.77;;;7.40;99.90;;;;;;5077922;28;20778;-67
2023/04/28 03:14:16;;;;;;;5.10;4.50;;;7.20;99.90;;;;;;5077325;28;20464;-66
2023/04/28 03:16:43;;;;;;;6.67;4.50;;;7.20;99.90;;;;;;5077332;28;20548;-68
2023/04/28 03:19:10;;;;;;;7.00;4.93;;;7.30;99.90;;;;;;5077328;28;20458;-67
2023/04/28 03:21:37;;;;;;;8.80;4.63;;;7.30;99.90;;;;;;5076838;28;20482;-67
2023/04/28 03:24:06;;;;;;;7.43;5.27;;;7.30;99.90;;;;;;5076348;28;20472;-67
2023/04/28 03:26:32;;;;;;;5.83;4.33;;;7.20;99.90;;;;;;5078017;28;20574;-67
2023/04/28 03:28:59;;;;;;;8.07;4.53;;;7.00;99.90;;;;;;5077353;28;20465;-67
2023/04/28 03:31:26;;;;;;;5.10;4.60;;;7.10;99.90;;;;;;5076919;28;20843;-68
2023/04/28 03:33:53;;;;;;;8.27;5.30;;;7.20;99.90;;;;;;5077450;28;20552;-68
2023/04/28 03:36:20;;;;;;;6.83;4.93;;;7.20;99.90;;;;;;5077376;28;20552;-67
2023/04/28 03:38:47;;;;;;;6.70;4.37;;;7.10;99.90;;;;;;5077384;28;20569;-66
2023/04/28 03:41:15;;;;;;;6.77;4.33;;;7.00;99.90;;;;;;5077228;28;21041;-67
2023/04/28 03:43:42;;;;;;;5.70;4.67;;;7.00;99.90;;;;;;5077036;28;20783;-67
2023/04/28 03:46:08;;;;;;;6.47;4.60;;;7.20;99.90;;;;;;5076314;28;20454;-67
2023/04/28 03:48:35;;;;;;;10.57;4.70;;;7.20;99.90;;;;;;5076866;28;20466;-67
2023/04/28 03:51:02;;;;;;;8.73;4.87;;;7.30;99.90;;;;;;5076665;28;20541;-66
2023/04/28 03:53:29;;;;;;;7.67;4.53;;;7.40;99.90;;;;;;5076969;28;20553;-68
2023/04/28 03:55:56;;;;;;;7.90;5.20;;;7.50;99.90;;;;;;5077298;28;20493;-67
2023/04/28 03:58:24;;;;;;;5.63;4.73;;;7.50;99.90;;;;;;5076870;28;20465;-67
2023/04/28 04:00:51;;;;;;;6.80;4.30;;;7.40;99.90;;;;;;5076632;28;20484;-67
2023/04/28 04:03:20;;;;;;;8.00;4.50;;;7.50;99.90;;;;;;5076617;28;20505;-67
2023/04/28 04:05:47;;;;;;;5.77;5.17;;;7.50;99.90;;;;;;5076391;28;20458;-67
2023/04/28 04:08:14;;;;;;;7.30;5.23;;;7.50;99.90;;;;;;5076590;28;20848;-66
2023/04/28 04:10:41;;;;;;;12.67;5.00;;;7.40;99.90;;;;;;5076201;28;20469;-67
2023/04/28 04:13:08;;;;;;;7.13;5.47;;;7.40;99.90;;;;;;5076654;28;20556;-66
2023/04/28 04:15:36;;;;;;;7.40;4.63;;;7.40;99.90;;;;;;5076465;28;20549;-67
2023/04/28 04:18:03;;;;;;;6.50;4.70;;;7.40;99.90;;;;;;5076821;28;20450;-67
2023/04/28 04:20:30;;;;;;;5.97;4.90;;;7.40;99.90;;;;;;5076169;28;20986;-67
2023/04/28 04:22:56;;;;;;;6.10;4.83;;;7.40;99.90;;;;;;5075981;28;20492;-68
2023/04/28 04:25:23;;;;;;;6.87;5.80;;;7.60;99.90;;;;;;5075926;28;20844;-67
2023/04/28 04:27:50;;;;;;;7.30;4.87;;;7.60;99.90;;;;;;5076073;28;20462;-68
2023/04/28 04:30:17;;;;;;;6.57;4.60;;;7.40;99.90;;;;;;5076748;28;20462;-68
2023/04/28 04:32:45;;;;;;;6.80;5.43;;;7.20;99.90;;;;;;5076384;28;20459;-68
2023/04/28 04:35:12;;;;;;;5.63;5.00;;;7.10;99.90;;;;;;5075806;28;20453;-68
2023/04/28 04:37:39;;;;;;;8.80;4.80;;;7.30;99.90;;;;;;5075969;28;20501;-67
2023/04/28 04:40:07;;;;;;;7.23;5.20;;;7.40;99.90;;;;;;5075709;28;20522;-68
2023/04/28 04:42:34;;;;;;;9.83;5.33;;;7.40;99.90;;;;;;5076843;28;21032;-67
2023/04/28 04:45:01;;;;;;;6.90;4.97;;;7.40;99.90;;;;;;5075630;28;20544;-68
2023/04/28 04:47:28;;;;;;;8.10;4.80;;;7.60;99.90;;;;;;5074849;28;20494;-67
2023/04/28 04:49:56;;;;;;;9.33;5.57;;;7.60;99.90;;;;;;5074897;28;20465;-68
2023/04/28 04:52:23;;;;;;;7.17;5.13;;;7.60;99.90;;;;;;5075204;28;20503;-66
2023/04/28 04:54:51;;;;;;;5.17;4.67;;;7.70;99.90;;;;;;5074957;28;20476;-68
2023/04/28 04:57:17;;;;;;;7.70;5.43;;;7.80;99.90;;;;;;5074947;28;20458;-68
2023/04/28 04:59:44;;;;;;;5.60;4.60;;;7.70;99.90;;;;;;5074968;28;20601;-68
2023/04/28 05:02:12;;;;;;;8.30;5.00;;;7.70;99.90;;;;;;5074878;28;20566;-68
2023/04/28 05:04:39;;;;;;;7.20;5.27;;;7.70;99.90;;;;;;5074830;28;20496;-67
2023/04/28 05:07:07;;;;;;;14.77;7.13;;;7.70;99.90;;;;;;5075304;28;20516;-68
2023/04/28 05:09:34;;;;;;;45.43;25.93;;;7.80;99.90;;;;;;5074333;28;20504;-68
2023/04/28 05:12:01;;;;;;;13.60;6.43;;;7.90;99.90;;;;;;5074659;28;20556;-66
2023/04/28 05:14:28;;;;;;;11.97;7.30;;;7.90;99.90;;;;;;5074744;28;20537;-67
2023/04/28 05:16:55;;;;;;;7.27;5.30;;;7.90;99.90;;;;;;5074590;28;20485;-68
2023/04/28 05:19:22;;;;;;;11.43;5.60;;;8.00;99.90;;;;;;5074607;28;20454;-67
2023/04/28 05:21:51;;;;;;;7.97;5.47;;;8.10;99.90;;;;;;5074641;28;20478;-67
2023/04/28 05:24:22;;;;;;;8.20;5.60;;;8.20;99.90;;;;;;5074357;28;20549;-68
2023/04/28 05:26:49;;;;;;;6.20;5.00;;;8.10;99.90;;;;;;5074435;28;20451;-67
2023/04/28 05:29:16;;;;;;;7.97;4.90;;;8.20;99.90;;;;;;5074297;28;20791;-67
2023/04/28 05:31:43;;;;;;;49.47;30.83;;;8.20;99.90;;;;;;5074423;28;20450;-67
2023/04/28 05:34:10;;;;;;;10.83;6.67;;;8.20;99.90;;;;;;5074424;28;20854;-67
2023/04/28 05:36:38;;;;;;;12.23;7.47;;;8.30;99.90;;;;;;5073902;28;20454;-67
2023/04/28 05:39:05;;;;;;;12.73;10.03;;;8.40;99.90;;;;;;5073941;28;20532;-68
2023/04/28 05:41:35;;;;;;;11.63;7.40;;;8.50;99.90;;;;;;5074174;28;20553;-68
2023/04/28 05:44:02;;;;;;;14.13;8.87;;;8.60;99.90;;;;;;5073878;28;20572;-69
2023/04/28 05:46:29;;;;;;;20.47;14.43;;;8.60;99.90;;;;;;5073822;28;20497;-68
2023/04/28 05:48:56;;;;;;;8.57;6.43;;;8.70;99.90;;;;;;5073769;28;20518;-68
2023/04/28 05:51:23;;;;;;;13.07;10.07;;;8.70;99.90;;;;;;5073936;28;20450;-68
2023/04/28 05:53:50;;;;;;;15.07;10.10;;;8.70;99.90;;;;;;5073908;28;20509;-67
2023/04/28 05:56:17;;;;;;;8.17;5.13;;;8.80;99.90;;;;;;5074107;28;20544;-67
2023/04/28 05:58:46;;;;;;;10.30;6.30;;;8.80;99.90;;;;;;5074010;28;20468;-68
2023/04/28 06:01:13;;;;;;;11.17;5.20;;;8.70;99.90;;;;;;5073786;28;20556;-68
2023/04/28 06:03:40;;;;;;;6.07;4.93;;;8.60;99.90;;;;;;5074942;28;20492;-67
2023/04/28 06:06:07;;;;;;;7.93;5.07;;;8.70;99.90;;;;;;5073807;28;20465;-68
2023/04/28 06:08:35;;;;;;;7.00;4.53;;;8.80;99.90;;;;;;5074004;28;20843;-68
2023/04/28 06:11:02;;;;;;;8.03;5.03;;;9.10;99.90;;;;;;5074266;28;20786;-68
2023/04/28 06:13:28;;;;;;;6.10;5.20;;;9.20;99.90;;;;;;5074037;28;20541;-68
2023/04/28 06:15:57;;;;;;;8.63;4.50;;;9.30;99.90;;;;;;5074092;28;20509;-68
2023/04/28 06:18:24;;;;;;;4.93;4.43;;;9.40;1.00;;;;;;5074861;28;20538;-68
2023/04/28 06:20:51;;;;;;;6.57;5.20;;;9.50;99.90;;;;;;5074151;28;20548;-68
2023/04/28 06:23:18;;;;;;;7.40;5.07;;;9.60;1.00;;;;;;5074513;28;20478;-67
2023/04/28 06:25:45;;;;;;;6.77;5.20;;;9.60;99.90;;;;;;5074584;28;20512;-68
2023/04/28 06:28:13;;;;;;;6.57;5.20;;;9.70;99.90;;;;;;5074350;28;20541;-67
2023/04/28 06:30:40;;;;;;;8.80;5.53;;;9.70;99.90;;;;;;5074248;28;20516;-69
2023/04/28 06:33:09;;;;;;;10.23;7.70;;;9.80;99.90;;;;;;5074147;28;20458;-68
2023/04/28 06:35:37;;;;;;;11.13;7.13;;;9.90;99.90;;;;;;5074167;28;20466;-67
2023/04/28 06:38:04;;;;;;;5.97;5.37;;;10.10;99.90;;;;;;5073761;28;20854;-68
2023/04/28 06:40:31;;;;;;;9.70;6.00;;;10.10;99.90;;;;;;5074533;28;20525;-69
2023/04/28 06:42:58;;;;;;;10.23;5.13;;;10.30;99.90;;;;;;5073559;28;20486;-68
2023/04/28 06:45:25;;;;;;;8.10;4.70;;;10.40;1.00;;;;;;5073544;28;20454;-68
2023/04/28 06:47:55;;;;;;;7.50;4.60;;;10.50;1.00;;;;;;5073783;28;20458;-67
2023/04/28 06:50:24;;;;;;;6.67;4.57;;;10.50;99.90;;;;;;5073476;28;20959;-68
2023/04/28 06:52:51;;;;;;;8.13;4.90;;;10.60;1.00;;;;;;5073658;28;20753;-67
2023/04/28 06:55:18;;;;;;;6.00;4.37;;;10.60;99.90;;;;;;5073302;28;20927;-68
2023/04/28 06:57:45;;;;;;;10.50;4.50;;;10.70;99.90;;;;;;5073391;28;20458;-68
2023/04/28 07:00:13;;;;;;;6.90;4.00;;;10.70;99.90;;;;;;5076551;28;20470;-67
2023/04/28 07:02:40;;;;;;;8.07;4.67;;;10.70;99.90;;;;;;5077049;28;20503;-67
2023/04/28 07:05:07;;;;;;;7.80;4.63;;;10.80;1.00;;;;;;5077441;28;20537;-67
2023/04/28 07:07:37;;;;;;;8.00;4.33;;;10.90;1.00;;;;;;5076628;28;20997;-68
2023/04/28 07:10:05;;;;;;;6.30;4.30;;;10.90;99.90;;;;;;5077226;28;20454;-68
2023/04/28 07:12:31;;;;;;;5.30;4.30;;;11.00;99.90;;;;;;5076996;28;20450;-68
2023/04/28 07:14:58;;;;;;;8.43;4.43;;;11.10;99.90;;;;;;5076767;28;20468;-68
2023/04/28 07:17:25;;;;;;;3.70;3.30;;;11.20;99.90;;;;;;5076662;28;20938;-68
2023/04/28 07:19:52;;;;;;;5.57;4.37;;;11.30;99.90;;;;;;5076443;28;20549;-67
2023/04/28 07:22:19;;;;;;;6.40;3.80;;;11.40;1.00;;;;;;5076987;28;20484;-68
2023/04/28 07:24:47;;;;;;;7.17;3.93;;;11.40;99.90;;;;;;5076900;28;20464;-67
2023/04/28 07:27:14;;;;;;;6.60;3.40;;;11.40;1.00;;;;;;5076711;28;20458;-68
2023/04/28 07:29:41;;;;;;;11.00;3.80;;;11.40;1.00;;;;;;5076778;28;20550;-68
2023/04/28 07:32:09;;;;;;;5.90;4.23;;;11.40;1.00;;;;;;5076320;28;20468;-68
2023/04/28 07:34:36;;;;;;;7.73;4.10;;;11.40;1.00;;;;;;5076440;28;21006;-67
2023/04/28 07:37:03;;;;;;;7.80;3.93;;;11.50;1.00;;;;;;5076365;28;20580;-68
2023/04/28 07:39:32;;;;;;;4.10;3.73;;;11.60;1.00;;;;;;5076098;28;20890;-67
2023/04/28 07:42:01;;;;;;;4.10;3.70;;;11.70;1.00;;;;;;5076428;28;20757;-67
2023/04/28 07:44:28;;;;;;;4.73;3.40;;;11.70;1.00;;;;;;5076536;28;20559;-68
2023/04/28 07:46:55;;;;;;;8.70;4.27;;;11.90;1.00;;;;;;5076516;28;20988;-67
2023/04/28 07:49:22;;;;;;;5.73;4.03;;;11.90;1.00;;;;;;5076471;28;20450;-67
2023/04/28 07:51:53;;;;;;;6.43;4.27;;;12.00;1.00;;;;;;5076537;28;20554;-68
2023/04/28 07:54:20;;;;;;;4.70;4.20;;;12.00;1.00;;;;;;5076774;28;20482;-68
2023/04/28 07:56:47;;;;;;;7.03;4.40;;;12.10;1.00;;;;;;5075928;28;20458;-67
2023/04/28 07:59:16;;;;;;;5.33;4.03;;;12.20;1.00;;;;;;5076359;28;20473;-68
2023/04/28 08:01:42;;;;;;;5.83;3.70;;;12.20;1.00;;;;;;5076550;28;20558;-68
2023/04/28 08:04:10;;;;;;;6.87;3.93;;;12.20;1.00;;;;;;5075950;28;20482;-68
2023/04/28 08:06:38;;;;;;;8.20;4.00;;;12.30;1.00;;;;;;5075857;28;20527;-69
2023/04/28 08:09:06;;;;;;;10.37;4.40;;;12.40;1.00;;;;;;5076059;28;20458;-68
2023/04/28 08:11:33;;;;;;;8.23;4.77;;;12.40;1.00;;;;;;5075674;28;20527;-67
2023/04/28 08:14:01;;;;;;;10.23;4.30;;;12.50;1.00;;;;;;5075411;28;20450;-67
2023/04/28 08:16:31;;;;;;;4.93;3.80;;;12.60;1.00;;;;;;5076014;28;20537;-67
2023/04/28 08:18:59;;;;;;;7.00;4.00;;;12.60;1.00;;;;;;5076195;28;20465;-68
2023/04/28 08:21:26;;;;;;;11.93;4.53;;;12.70;1.00;;;;;;5076012;28;20486;-68
2023/04/28 08:23:52;;;;;;;4.00;3.70;;;12.80;1.00;;;;;;5075509;28;20664;-68
2023/04/28 08:26:19;;;;;;;8.10;4.10;;;12.90;1.00;;;;;;5075353;28;20510;-67
2023/04/28 08:28:46;;;;;;;8.10;4.00;;;13.00;1.00;;;;;;5075610;28;20462;-68
2023/04/28 08:31:13;;;;;;;7.30;3.50;;;13.10;1.00;;;;;;5075661;28;20817;-68
2023/04/28 08:33:43;;;;;;;5.70;4.20;;;13.20;1.00;;;;;;5075371;28;20486;-68
2023/04/28 08:36:13;;;;;;;16.00;5.70;;;13.40;1.00;;;;;;5075885;28;20852;-68
2023/04/28 08:38:40;;;;;;;8.40;4.70;;;13.50;1.00;;;;;;5075374;28;20517;-68
2023/04/28 08:41:07;;;;;;;5.57;3.83;;;13.50;1.00;;;;;;5075237;28;21010;-68
2023/04/28 08:43:35;;;;;;;6.70;4.47;;;13.60;1.00;;;;;;5075356;28;20508;-67
2023/04/28 08:46:06;;;;;;;6.20;3.40;;;13.70;1.00;;;;;;5076131;28;20554;-67
2023/04/28 08:48:40;;;;;;;5.63;3.90;;;13.70;1.00;;;;;;5075154;28;20905;-69
2023/04/28 08:51:08;;;;;;;10.17;4.43;;;13.70;1.00;;;;;;5074793;28;20442;-68
2023/04/28 08:53:38;;;;;;;6.50;3.63;;;13.80;1.00;;;;;;5074866;28;20973;-68
2023/04/28 08:56:06;;;;;;;5.43;4.40;;;13.90;1.00;;;;;;5075016;28;20565;-68
2023/04/28 08:58:36;;;;;;;10.60;5.03;;;14.00;1.00;;;;;;5074835;28;20886;-68
2023/04/28 09:01:03;;;;;;;7.33;4.80;;;14.10;1.00;;;;;;5074725;28;20458;-69
2023/04/28 09:03:31;;;;;;;6.23;4.00;;;14.00;1.00;;;;;;5075346;28;20477;-68
2023/04/28 09:05:58;;;;;;;15.27;5.13;;;14.20;1.00;;;;;;5074566;28;20454;-68
2023/04/28 09:08:26;;;;;;;11.07;4.17;;;14.30;1.00;;;;;;5074847;28;20558;-68
2023/04/28 09:11:07;;;;;;;7.50;4.30;;;14.40;1.00;;;;;;5074637;28;20454;-67
2023/04/28 09:13:34;;;;;;;5.47;3.83;;;14.50;1.00;;;;;;5074802;28;20449;-67
2023/04/28 09:16:02;;;;;;;9.70;4.33;;;14.60;1.00;;;;;;5074836;28;20519;-68
2023/04/28 09:18:31;;;;;;;3.90;3.13;;;14.70;1.00;;;;;;5074757;28;20454;-68
2023/04/28 09:21:08;;;;;;;5.37;3.97;;;14.90;1.00;;;;;;5074401;28;20458;-67
2023/04/28 09:23:47;;;;;;;6.23;4.17;;;15.00;1.00;;;;;;5074380;28;20476;-67
2023/04/28 09:26:14;;;;;;;5.47;3.80;;;15.00;1.00;;;;;;5074738;28;20453;-68
2023/04/28 09:28:41;;;;;;;10.73;4.63;;;15.10;1.00;;;;;;5074405;28;20458;-69
2023/04/28 09:31:22;;;;;;;9.10;4.30;;;15.10;1.00;;;;;;5074555;28;20549;-68
2023/04/28 09:33:57;;;;;;;7.17;4.70;;;15.10;1.00;;;;;;5074565;28;20461;-68
2023/04/28 09:36:28;;;;;;;6.30;4.17;;;15.20;1.00;;;;;;5074570;28;20460;-68
2023/04/28 09:38:58;;;;;;;7.00;4.53;;;15.30;1.00;;;;;;5074448;28;20500;-68
2023/04/28 09:41:35;;;;;;;36.00;26.30;;;15.50;1.00;;;;;;5074304;28;20454;-67
2023/04/28 09:44:14;;;;;;;5.93;5.20;;;15.50;1.00;;;;;;5074304;28;20458;-68
2023/04/28 09:46:41;;;;;;;6.30;3.90;;;15.60;1.00;;;;;;5074823;28;20831;-68
2023/04/28 09:49:08;;;;;;;6.47;4.60;;;15.70;1.00;;;;;;5074224;28;20562;-67
2023/04/28 09:51:35;;;;;;;4.50;4.03;;;15.90;1.00;;;;;;5074149;28;20552;-66
2023/04/28 09:54:04;;;;;;;6.40;4.50;;;16.00;1.00;;;;;;5073998;28;20541;-68
2023/04/28 09:56:32;;;;;;;4.83;3.80;;;16.20;1.00;;;;;;5074413;28;20458;-67
2023/04/28 09:59:01;;;;;;;5.97;4.70;;;16.40;1.00;;;;;;5074350;28;20458;-67
2023/04/28 10:01:31;;;;;;;12.83;5.03;;;16.40;1.00;;;;;;5074206;28;20464;-67
2023/04/28 10:03:59;;;;;;;7.90;4.70;;;16.50;1.00;;;;;;5073907;28;20467;-68
2023/04/28 10:06:28;;;;;;;7.20;5.20;;;16.50;1.00;;;;;;5074217;28;20458;-67
2023/04/28 10:08:57;;;;;;;8.70;4.87;;;16.70;1.00;;;;;;5074530;28;20459;-67
2023/04/28 10:11:27;;;;;;;7.80;4.73;;;16.70;1.00;;;;;;5074069;28;20999;-67
2023/04/28 10:13:54;;;;;;;11.10;5.77;;;16.70;1.00;;;;;;5074210;28;20465;-68
2023/04/28 10:16:23;;;;;;;7.03;4.47;;;16.90;1.00;;;;;;5074583;28;20453;-67
2023/04/28 10:18:50;;;;;;;7.40;5.27;;;17.00;1.00;;;;;;5074313;28;20465;-68
2023/04/28 10:21:20;;;;;;;9.03;4.37;;;17.10;1.00;;;;;;5074894;28;20543;-67
2023/04/28 10:24:08;;;;;;;6.30;4.53;;;17.20;1.00;;;;;;5074947;28;20978;-67
2023/04/28 10:27:07;;;;;;;5.03;4.50;;;17.30;1.00;;;;;;5071998;28;20523;-67
2023/04/28 10:29:34;;;;;;;7.83;5.53;;;17.30;1.00;;;;;;5073705;28;20482;-67
2023/04/28 10:32:22;;;;;;;7.57;4.90;;;17.30;1.00;;;;;;5073878;28;20454;-67
2023/04/28 10:34:49;;;;;;;5.73;4.50;;;17.40;1.00;;;;;;5077112;28;20453;-68
2023/04/28 10:37:17;;;;;;;7.67;5.20;;;17.60;1.00;;;;;;5077376;28;20527;-67
2023/04/28 10:40:21;;;;;;;7.83;4.70;;;17.70;1.00;;;;;;5077248;28;20504;-67
2023/04/28 10:42:54;;;;;;;8.03;4.73;;;17.60;1.00;;;;;;5077471;28;20454;-67
2023/04/28 10:45:59;;;;;;;9.33;5.13;;;17.60;1.00;;;;;;5077174;28;20951;-68
2023/04/28 10:48:54;;;;;;;6.97;4.63;;;17.80;1.00;;;;;;5067656;28;20458;-67
2023/04/28 10:51:38;;;;;;;4.77;4.30;;;18.00;94.10;;;;;;5077035;28;20457;-68
2023/04/28 10:54:16;;;;;;;7.73;5.20;;;18.20;1.00;;;;;;5076772;28;20929;-67
2023/04/28 10:57:20;;;;;;;7.00;4.20;;;18.40;1.00;;;;;;5077101;28;20465;-68
2023/04/28 10:59:50;;;;;;;7.70;5.77;;;18.60;80.90;;;;;;5077471;28;20544;-68
2023/04/28 11:02:37;;;;;;;8.20;5.30;;;18.80;1.00;;;;;;5077098;28;20458;-67
2023/04/28 11:05:19;;;;;;;10.03;4.90;;;18.90;1.00;;;;;;5076957;28;20474;-69
2023/04/28 11:08:29;;;;;;;5.70;4.63;;;19.20;1.00;;;;;;5073936;28;20515;-67
2023/04/28 11:11:15;;;;;;;7.10;4.80;;;19.30;99.90;;;;;;5077005;28;20441;-68
2023/04/28 11:13:45;;;;;;;7.40;5.03;;;19.50;40.00;;;;;;5076842;28;20457;-67
2023/04/28 11:16:15;;;;;;;10.47;4.63;;;19.60;99.90;;;;;;5076693;28;20510;-67
2023/04/28 11:19:03;;;;;;;6.80;4.50;;;19.80;99.90;;;;;;5076433;28;20470;-67
2023/04/28 11:21:30;;;;;;;4.30;3.90;;;20.10;99.90;;;;;;5076598;28;20442;-67
2023/04/28 11:23:58;;;;;;;8.67;4.60;;;20.30;99.90;;;;;;5076562;28;20878;-68
2023/04/28 11:26:25;;;;;;;6.93;4.60;;;20.50;99.90;;;;;;5076739;28;20450;-68
2023/04/28 11:28:54;;;;;;;8.23;4.50;;;20.60;99.90;;;;;;5076493;28;20554;-68
2023/04/28 11:31:23;;;;;;;5.30;4.80;;;20.40;1.00;;;;;;5076824;28;20462;-68
2023/04/28 11:33:55;;;;;;;5.30;4.63;;;20.70;99.90;;;;;;5076220;28;20454;-69
2023/04/28 11:36:31;;;;;;;9.50;4.80;;;20.80;99.90;;;;;;5076516;28;20488;-68
2023/04/28 11:38:58;;;;;;;6.63;4.43;;;20.90;1.00;;;;;;5076560;28;20482;-68
2023/04/28 11:41:26;;;;;;;8.93;4.70;;;21.00;1.00;;;;;;5076211;28;20541;-68
2023/04/28 11:43:53;;;;;;;5.90;4.50;;;21.00;99.90;;;;;;5076093;28;20481;-67
2023/04/28 11:46:23;;;;;;;16.47;12.70;;;20.90;1.00;;;;;;5075801;28;20550;-68
2023/04/28 11:49:00;;;;;;;6.80;4.20;;;21.00;1.00;;;;;;5076125;28;20458;-68
2023/04/28 11:51:32;;;;;;;6.63;4.73;;;21.00;1.00;;;;;;5076350;28;20443;-68
2023/04/28 11:53:59;;;;;;;6.93;4.63;;;21.30;1.00;;;;;;5076364;28;20845;-68
2023/04/28 11:56:26;;;;;;;7.30;4.27;;;21.30;99.90;;;;;;5076110;28;20469;-67
2023/04/28 11:59:04;;;;;;;6.00;4.67;;;21.40;99.90;;;;;;5076320;28;20506;-68
2023/04/28 12:01:33;;;;;;;6.00;4.30;;;21.50;99.90;;;;;;5076410;28;20466;-67
2023/04/28 12:04:00;;;;;;;6.90;4.97;;;21.40;99.90;;;;;;5076003;28;20525;-68
2023/04/28 12:06:28;;;;;;;6.83;4.80;;;21.40;82.40;;;;;;5076162;28;20550;-67
2023/04/28 12:08:56;;;;;;;9.50;5.40;;;21.30;99.90;;;;;;5075916;28;20454;-68
2023/04/28 12:11:23;;;;;;;5.93;4.87;;;20.50;99.90;;;;;;5075943;28;20535;-69
2023/04/28 12:14:06;;;;;;;6.70;5.10;;;20.20;99.90;;;;;;5075959;28;20571;-69
2023/04/28 12:16:46;;;;;;;11.50;6.23;;;19.80;99.90;;;;;;5075725;28;20933;-67
2023/04/28 12:19:14;;;;;;;9.53;4.80;;;19.80;1.00;;;;;;5075638;28;20470;-67
2023/04/28 12:21:42;;;;;;;7.30;4.83;;;19.90;1.00;;;;;;5075669;28;20458;-68
2023/04/28 12:24:20;;;;;;;9.50;5.10;;;20.40;1.00;;;;;;5075725;28;20486;-68
2023/04/28 12:26:48;;;;;;;7.47;5.50;;;20.70;1.00;;;;;;5075531;28;20557;-67
2023/04/28 12:29:39;;;;;;;12.90;5.93;;;20.80;99.80;;;;;;5075478;28;20462;-67
2023/04/28 12:32:09;;;;;;;6.53;5.23;;;20.70;99.90;;;;;;5075613;28;20469;-68
2023/04/28 12:34:38;;;;;;;14.40;5.93;;;20.20;22.20;;;;;;5075948;28;20593;-68
2023/04/28 12:37:06;;;;;;;7.70;5.63;;;20.10;1.00;;;;;;5076104;28;20458;-67
2023/04/28 12:39:33;;;;;;;10.03;5.10;;;20.20;67.40;;;;;;5075707;28;20568;-68
2023/04/28 12:42:01;;;;;;;7.23;5.17;;;19.90;1.00;;;;;;5076419;28;20455;-68
2023/04/28 12:44:28;;;;;;;10.13;6.17;;;19.80;99.90;;;;;;5075517;28;20474;-68
2023/04/28 12:46:56;;;;;;;6.60;5.97;;;19.30;1.00;;;;;;5076254;28;20454;-68
2023/04/28 12:49:24;;;;;;;7.77;6.53;;;18.80;1.00;;;;;;5076055;28;20548;-68
2023/04/28 12:51:51;;;;;;;10.40;6.13;;;18.90;16.60;;;;;;5075758;28;20494;-68
2023/04/28 12:54:17;;;;;;;9.93;6.33;;;19.10;1.00;;;;;;5075860;28;20450;-68
2023/04/28 12:56:44;;;;;;;5.57;4.70;;;19.40;13.30;;;;;;5074768;28;20537;-68
2023/04/28 12:59:11;;;;;;;8.20;5.63;;;19.70;1.00;;;;;;5075511;28;20549;-68
2023/04/28 13:01:39;;;;;;;8.83;5.70;;;19.60;25.80;;;;;;5075708;28;20497;-67